createdAt,value
2023-01-07T00:01:43.794Z,100975.19
2023-01-07T00:04:14.797Z,100968.94
2023-01-07T00:06:44.579Z,100964.59
2023-01-07T00:09:16.620Z,100965.47
2023-01-07T00:11:45.268Z,100964.72
2023-01-07T00:14:15.055Z,100957.72
2023-01-07T00:16:43.273Z,100952.38
2023-01-07T00:19:15.806Z,100947.88
2023-01-07T00:21:43.933Z,100958.69
2023-01-07T00:24:12.549Z,100951.59
2023-01-07T00:26:41.081Z,100938.16
2023-01-07T00:29:09.579Z,100936.31
2023-01-07T00:31:39.853Z,100945.00
2023-01-07T00:34:09.396Z,100938.84
2023-01-07T00:36:44.552Z,100929.94
2023-01-07T00:39:20.534Z,100938.84
2023-01-07T00:42:07.577Z,100929.31
2023-01-07T00:44:36.899Z,100933.13
2023-01-07T00:47:04.927Z,100932.19
2023-01-07T00:49:32.720Z,100922.34
2023-01-07T00:52:00.750Z,100924.09
2023-01-07T00:54:28.631Z,100911.75
2023-01-07T00:56:56.492Z,100919.56
2023-01-07T00:59:24.153Z,100917.84
2023-01-07T01:01:52.346Z,100917.75
2023-01-07T01:04:20.177Z,100900.88
2023-01-07T01:06:47.817Z,100908.03
2023-01-07T01:09:15.978Z,100909.66
2023-01-07T01:11:43.797Z,100908.69
2023-01-07T01:14:12.032Z,100908.59
2023-01-07T01:16:39.780Z,100905.19
2023-01-07T01:19:07.733Z,100896.22
2023-01-07T01:21:35.457Z,100904.19
2023-01-07T01:24:03.237Z,100899.66
2023-01-07T01:26:30.881Z,100905.00
2023-01-07T01:28:58.672Z,100905.00
2023-01-07T01:31:26.963Z,100901.38
2023-01-07T01:33:57.030Z,100904.81
2023-01-07T01:36:25.508Z,100907.47
2023-01-07T01:38:57.440Z,100912.84
2023-01-07T01:41:26.196Z,100909.22
2023-01-07T01:43:55.555Z,100909.09
2023-01-07T01:46:41.909Z,100895.66
2023-01-07T01:49:30.641Z,100901.88
2023-01-07T01:52:13.178Z,100908.09
2023-01-07T01:54:48.988Z,100901.06
2023-01-07T01:57:19.284Z,100893.16
2023-01-07T01:59:50.264Z,100904.47
2023-01-07T02:02:25.895Z,100887.28
2023-01-07T02:04:54.897Z,100895.13
2023-01-07T02:07:22.683Z,100896.78
2023-01-07T02:10:01.499Z,100884.41
2023-01-07T02:12:46.051Z,100882.53
2023-01-07T02:15:36.789Z,100884.47
2023-01-07T02:18:34.696Z,100886.34
2023-01-07T02:21:33.493Z,100878.59
2023-01-07T02:24:51.027Z,100878.63
2023-01-07T02:27:59.726Z,100877.00
2023-01-07T02:31:15.174Z,100869.03
2023-01-07T02:33:45.611Z,100863.78
2023-01-07T02:36:27.976Z,100870.78
2023-01-07T02:39:17.721Z,100861.97
2023-01-07T02:42:24.098Z,100852.25
2023-01-07T02:45:11.440Z,100853.25
2023-01-07T02:47:54.335Z,100848.09
2023-01-07T02:50:22.061Z,100845.59
2023-01-07T02:52:49.879Z,100841.28
2023-01-07T02:55:23.950Z,100838.59
2023-01-07T02:58:21.043Z,100830.69
2023-01-07T03:01:13.555Z,100838.91
2023-01-07T03:04:25.521Z,100825.63
2023-01-07T03:07:24.325Z,100827.59
2023-01-07T03:10:24.493Z,100806.31
2023-01-07T03:13:04.229Z,100820.38
2023-01-07T03:16:00.112Z,100813.13
2023-01-07T03:18:36.987Z,100814.91
2023-01-07T03:21:11.864Z,100818.25
2023-01-07T03:23:48.392Z,100809.31
2023-01-07T03:26:28.037Z,100806.75
2023-01-07T03:28:58.655Z,100805.94
2023-01-07T03:31:28.893Z,100803.19
2023-01-07T03:34:11.982Z,100801.34
2023-01-07T03:36:46.039Z,100804.03
2023-01-07T03:39:15.531Z,100797.75
2023-01-07T03:42:02.385Z,100802.22
2023-01-07T03:44:30.150Z,100804.06
2023-01-07T03:46:58.174Z,100796.03
2023-01-07T03:49:26.246Z,100793.38
2023-01-07T03:51:54.709Z,100790.59
2023-01-07T03:54:26.312Z,100788.78
2023-01-07T03:56:54.195Z,100787.13
2023-01-07T03:59:21.974Z,100780.69
2023-01-07T04:01:49.801Z,100782.44
2023-01-07T04:04:17.887Z,100785.06
2023-01-07T04:06:46.053Z,100776.94
2023-01-07T04:09:21.903Z,100774.22
2023-01-07T04:11:50.215Z,100771.50
2023-01-07T04:14:18.551Z,100758.25
2023-01-07T04:16:46.384Z,100768.75
2023-01-07T04:19:14.120Z,100765.19
2023-01-07T04:21:41.851Z,100758.38
2023-01-07T04:24:10.513Z,100762.66
2023-01-07T04:26:38.705Z,100764.41
2023-01-07T04:29:06.953Z,100746.59
2023-01-07T04:31:35.561Z,100754.59
2023-01-07T04:34:03.343Z,100744.75
2023-01-07T04:36:31.886Z,100746.59
2023-01-07T04:38:59.930Z,100747.47
2023-01-07T04:41:28.402Z,100741.22
2023-01-07T04:43:56.280Z,100743.81
2023-01-07T04:46:25.213Z,100720.97
2023-01-07T04:48:53.220Z,100728.72
2023-01-07T04:51:21.810Z,100731.31
2023-01-07T04:53:49.713Z,100730.50
2023-01-07T04:56:17.719Z,100733.00
2023-01-07T04:58:46.543Z,100727.75
2023-01-07T05:01:14.890Z,100724.09
2023-01-07T05:03:43.903Z,100722.34
2023-01-07T05:06:12.032Z,100715.25
2023-01-07T05:08:40.146Z,100723.16
2023-01-07T05:11:08.099Z,100720.53
2023-01-07T05:13:38.235Z,100712.50
2023-01-07T05:16:07.048Z,100714.19
2023-01-07T05:18:35.250Z,100715.06
2023-01-07T05:21:04.242Z,100708.94
2023-01-07T05:23:31.979Z,100690.88
2023-01-07T05:25:59.675Z,100704.84
2023-01-07T05:28:28.589Z,100710.25
2023-01-07T05:31:00.053Z,100702.25
2023-01-07T05:33:28.168Z,100684.72
2023-01-07T05:35:55.840Z,100696.00
2023-01-07T05:38:23.705Z,100696.81
2023-01-07T05:41:09.869Z,100686.50
2023-01-07T05:43:37.638Z,100697.09
2023-01-07T05:46:05.545Z,100679.47
2023-01-07T05:48:33.396Z,100665.50
2023-01-07T05:51:01.230Z,100682.84
2023-01-07T05:53:28.870Z,100675.69
2023-01-07T05:55:58.440Z,100673.03
2023-01-07T05:58:27.523Z,100674.75
2023-01-07T06:00:55.890Z,100666.66
2023-01-07T06:03:23.933Z,100663.97
2023-01-07T06:05:52.294Z,100651.84
2023-01-07T06:08:20.052Z,100663.97
2023-01-07T06:10:47.875Z,100657.03
2023-01-07T06:13:15.647Z,100656.03
2023-01-07T06:15:43.742Z,100651.69
2023-01-07T06:18:11.711Z,100651.56
2023-01-07T06:20:39.402Z,100656.78
2023-01-07T06:23:07.248Z,100653.22
2023-01-07T06:25:34.958Z,100657.56
2023-01-07T06:28:02.701Z,100649.56
2023-01-07T06:30:30.460Z,100642.47
2023-01-07T06:32:58.300Z,100653.00
2023-01-07T06:35:26.032Z,100650.41
2023-01-07T06:37:53.794Z,100642.75
2023-01-07T06:40:21.648Z,100649.16
2023-01-07T06:42:49.440Z,100637.13
2023-01-07T06:45:17.351Z,100632.69
2023-01-07T06:47:50.842Z,100627.31
2023-01-07T06:50:18.623Z,100629.13
2023-01-07T06:52:46.340Z,100633.53
2023-01-07T06:55:14.107Z,100622.94
2023-01-07T06:57:41.757Z,100631.72
2023-01-07T07:00:10.230Z,100625.34
2023-01-07T07:02:37.962Z,100607.00
2023-01-07T07:05:06.019Z,100613.13
2023-01-07T07:07:34.149Z,100617.31
2023-01-07T07:10:07.131Z,100612.13
2023-01-07T07:12:37.702Z,100622.56
2023-01-07T07:15:07.832Z,100611.78
2023-01-07T07:17:35.527Z,100612.88
2023-01-07T07:20:03.727Z,100609.06
2023-01-07T07:22:31.375Z,100617.94
2023-01-07T07:24:59.043Z,100606.44
2023-01-07T07:27:26.925Z,100599.22
2023-01-07T07:29:54.883Z,100600.88
2023-01-07T07:32:28.201Z,100589.53
2023-01-07T07:34:57.173Z,100602.66
2023-01-07T07:37:24.841Z,100596.41
2023-01-07T07:39:52.819Z,100600.88
2023-01-07T07:42:20.619Z,100600.09
2023-01-07T07:44:50.294Z,100587.72
2023-01-07T07:47:18.808Z,100592.88
2023-01-07T07:49:46.456Z,100591.97
2023-01-07T07:52:14.289Z,100579.50
2023-01-07T07:54:42.605Z,100586.53
2023-01-07T07:57:10.324Z,100581.19
2023-01-07T07:59:37.979Z,100574.09
2023-01-07T08:02:06.212Z,100561.81
2023-01-07T08:04:34.876Z,100568.69
2023-01-07T08:07:02.543Z,100566.94
2023-01-07T08:09:30.265Z,100564.31
2023-01-07T08:11:58.027Z,100569.53
2023-01-07T08:14:26.073Z,100558.78
2023-01-07T08:16:53.856Z,100558.00
2023-01-07T08:19:21.546Z,100556.97
2023-01-07T08:21:50.480Z,100557.91
2023-01-07T08:24:18.304Z,100564.06
2023-01-07T08:26:45.977Z,100553.44
2023-01-07T08:29:13.827Z,100553.31
2023-01-07T08:31:41.459Z,100561.31
2023-01-07T08:34:09.476Z,100556.06
2023-01-07T08:36:37.146Z,100562.19
2023-01-07T08:39:04.860Z,100562.19
2023-01-07T08:41:32.467Z,100563.91
2023-01-07T08:44:00.238Z,100560.28
2023-01-07T08:46:27.936Z,100547.94
2023-01-07T08:48:55.685Z,100555.84
2023-01-07T08:51:23.439Z,100559.31
2023-01-07T08:53:51.128Z,100549.69
2023-01-07T08:56:18.824Z,100553.31
2023-01-07T08:58:46.565Z,100539.19
2023-01-07T09:01:14.570Z,100542.47
2023-01-07T09:03:42.308Z,100526.78
2023-01-07T09:06:10.202Z,100526.66
2023-01-07T09:08:38.403Z,100528.47
2023-01-07T09:11:06.266Z,100518.88
2023-01-07T09:13:34.238Z,100519.69
2023-01-07T09:16:02.000Z,100511.75
2023-01-07T09:18:29.793Z,100503.00
2023-01-07T09:20:57.498Z,100512.47
2023-01-07T09:23:25.243Z,100506.13
2023-01-07T09:25:52.899Z,100511.31
2023-01-07T09:28:20.771Z,100512.25
2023-01-07T09:30:48.615Z,100512.16
2023-01-07T09:33:16.280Z,100499.69
2023-01-07T09:35:43.929Z,100489.13
2023-01-07T09:38:11.544Z,100507.56
2023-01-07T09:40:42.965Z,100502.09
2023-01-07T09:44:00.920Z,100500.41
2023-01-07T09:46:23.356Z,100505.69
2023-01-07T09:48:57.972Z,100502.72
2023-01-07T09:51:44.387Z,100509.69
2023-01-07T09:54:32.095Z,100506.84
2023-01-07T09:56:59.789Z,100496.44
2023-01-07T09:59:27.610Z,100504.13
2023-01-07T10:02:22.393Z,100496.09
2023-01-07T10:05:27.559Z,100495.94
2023-01-07T10:08:31.188Z,100491.44
2023-01-07T10:11:24.502Z,100491.44
2023-01-07T10:14:04.028Z,100487.69
2023-01-07T10:17:08.648Z,100477.84
2023-01-07T10:19:52.262Z,100483.16
2023-01-07T10:22:32.055Z,100472.28
2023-01-07T10:25:32.161Z,100469.47
2023-01-07T10:28:09.639Z,100465.72
2023-01-07T10:30:46.066Z,100469.72
2023-01-07T10:33:29.156Z,100459.91
2023-01-07T10:36:25.738Z,100455.03
2023-01-07T10:39:17.718Z,100442.38
2023-01-07T10:42:02.507Z,100449.69
2023-01-07T10:44:50.644Z,100422.91
2023-01-07T10:47:57.051Z,100426.41
2023-01-07T10:50:57.485Z,100409.72
2023-01-07T10:54:11.948Z,100409.63
2023-01-07T10:56:45.123Z,100402.38
2023-01-07T10:59:20.645Z,100392.47
2023-01-07T11:01:56.571Z,100385.97
2023-01-07T11:04:26.018Z,100390.91
2023-01-07T11:06:59.287Z,100374.63
2023-01-07T11:09:40.945Z,100371.81
2023-01-07T11:12:34.662Z,100370.97
2023-01-07T11:15:15.209Z,100365.28
2023-01-07T11:18:33.993Z,100359.38
2023-01-07T11:21:02.500Z,100354.78
2023-01-07T11:23:36.108Z,100356.28
2023-01-07T11:26:18.917Z,100339.09
2023-01-07T11:28:57.853Z,100320.78
2023-01-07T11:31:46.457Z,100332.50
2023-01-07T11:34:34.464Z,100325.09
2023-01-07T11:37:44.775Z,100311.84
2023-01-07T11:40:15.490Z,100317.97
2023-01-07T11:43:24.523Z,100309.09
2023-01-07T11:46:20.201Z,100311.50
2023-01-07T11:48:54.442Z,100298.97
2023-01-07T11:51:24.120Z,100301.16
2023-01-07T11:53:56.535Z,100295.56
2023-01-07T11:56:32.152Z,100281.16
2023-01-07T11:59:12.106Z,100289.72
2023-01-07T12:01:53.129Z,100272.78
2023-01-07T12:04:27.121Z,100272.69
2023-01-07T12:07:16.586Z,100267.94
2023-01-07T12:09:45.998Z,100267.75
2023-01-07T12:12:39.184Z,100256.09
2023-01-07T12:15:34.788Z,100247.19
2023-01-07T12:18:49.936Z,100249.97
2023-01-07T12:21:56.247Z,100242.09
2023-01-07T12:25:00.432Z,100235.16
2023-01-07T12:27:56.545Z,100220.75
2023-01-07T12:30:51.433Z,100224.34
2023-01-07T12:33:45.855Z,100223.50
2023-01-07T12:36:35.064Z,100222.72
2023-01-07T12:39:10.850Z,100216.31
2023-01-07T12:41:45.051Z,100218.75
2023-01-07T12:44:22.636Z,100193.88
2023-01-07T12:47:30.866Z,100204.31
2023-01-07T12:50:26.003Z,100196.44
2023-01-07T12:53:04.593Z,100188.34
2023-01-07T12:55:51.947Z,100182.19
2023-01-07T12:59:04.161Z,100183.25
2023-01-07T13:02:02.700Z,100177.78
2023-01-07T13:05:12.753Z,100171.47
2023-01-07T13:08:18.331Z,100170.63
2023-01-07T13:10:56.693Z,100158.06
2023-01-07T13:13:49.439Z,100173.78
2023-01-07T13:16:17.317Z,100158.94
2023-01-07T13:18:45.249Z,100161.28
2023-01-07T13:21:18.278Z,100163.66
2023-01-07T13:24:00.889Z,100148.66
2023-01-07T13:26:34.762Z,100162.81
2023-01-07T13:29:50.462Z,100153.06
2023-01-07T13:32:36.049Z,100150.38
2023-01-07T13:35:24.962Z,100147.69
2023-01-07T13:38:29.394Z,100153.91
2023-01-07T13:41:18.741Z,100145.09
2023-01-07T13:44:06.515Z,100141.47
2023-01-07T13:46:42.999Z,100140.50
2023-01-07T13:49:29.843Z,100133.25
2023-01-07T13:52:20.796Z,100137.84
2023-01-07T13:54:48.630Z,100138.91
2023-01-07T13:57:31.803Z,100150.00
2023-01-07T14:00:02.498Z,100141.38
2023-01-07T14:02:57.703Z,100133.34
2023-01-07T14:05:29.165Z,100134.50
2023-01-07T14:08:01.676Z,100137.00
2023-01-07T14:10:29.213Z,100138.09
2023-01-07T14:13:38.368Z,100144.84
2023-01-07T14:16:56.999Z,100136.28
2023-01-07T14:19:45.762Z,100136.97
2023-01-07T14:22:40.741Z,100138.78
2023-01-07T14:25:25.150Z,100132.75
2023-01-07T14:28:57.016Z,100134.56
2023-01-07T14:31:28.972Z,100117.88
2023-01-07T14:34:15.752Z,100123.94
2023-01-07T14:37:02.155Z,100124.69
2023-01-07T14:39:36.830Z,100110.81
2023-01-07T14:42:19.679Z,100123.94
2023-01-07T14:44:49.332Z,100126.03
2023-01-07T14:47:44.805Z,100123.25
2023-01-07T14:50:48.832Z,100109.44
2023-01-07T14:53:16.448Z,100125.31
2023-01-07T14:56:18.452Z,100127.03
2023-01-07T14:59:04.772Z,100118.41
2023-01-07T15:02:13.289Z,100117.38
2023-01-07T15:05:13.025Z,100114.97
2023-01-07T15:07:43.052Z,100107.28
2023-01-07T15:10:49.805Z,100100.03
2023-01-07T15:13:53.783Z,100088.81
2023-01-07T15:16:22.289Z,100082.06
2023-01-07T15:18:53.246Z,100088.00
2023-01-07T15:21:59.655Z,100084.56
2023-01-07T15:25:17.505Z,100086.66
2023-01-07T15:28:10.979Z,100090.56
2023-01-07T15:30:56.549Z,100099.34
2023-01-07T15:34:07.399Z,100093.22
2023-01-07T15:36:48.621Z,100091.66
2023-01-07T15:39:30.762Z,100092.09
2023-01-07T15:41:59.526Z,100094.97
2023-01-07T15:44:41.075Z,100096.59
2023-01-07T15:47:32.022Z,100098.75
2023-01-07T15:50:40.870Z,100088.56
2023-01-07T15:53:11.617Z,100083.31
2023-01-07T15:55:59.523Z,100082.66
2023-01-07T15:58:40.579Z,100081.09
2023-01-07T16:01:17.450Z,100076.94
2023-01-07T16:03:47.703Z,100089.53
2023-01-07T16:06:33.710Z,100082.66
2023-01-07T16:09:21.315Z,100083.06
2023-01-07T16:11:49.756Z,100066.88
2023-01-07T16:14:21.984Z,100075.69
2023-01-07T16:17:03.457Z,100079.56
2023-01-07T16:19:31.275Z,100081.00
2023-01-07T16:22:00.945Z,100080.94
2023-01-07T16:24:28.762Z,100065.44
2023-01-07T16:27:04.853Z,100064.06
2023-01-07T16:29:49.484Z,100055.25
2023-01-07T16:32:18.520Z,100061.97
2023-01-07T16:34:58.818Z,100055.03
2023-01-07T16:37:28.062Z,100061.47
2023-01-07T16:39:56.093Z,100053.47
2023-01-07T16:42:24.254Z,100054.66
2023-01-07T16:44:55.310Z,100052.13
2023-01-07T16:47:25.030Z,100051.50
2023-01-07T16:49:55.080Z,100058.75
2023-01-07T16:52:35.587Z,100040.63
2023-01-07T16:55:03.449Z,100036.94
2023-01-07T16:57:42.270Z,100041.50
2023-01-07T17:00:20.325Z,100037.16
2023-01-07T17:03:00.662Z,100033.88
2023-01-07T17:05:31.003Z,100035.13
2023-01-07T17:08:06.059Z,100033.97
2023-01-07T17:10:37.224Z,100031.25
2023-01-07T17:13:15.106Z,100037.03
2023-01-07T17:15:44.150Z,100031.22
2023-01-07T17:18:11.907Z,100026.75
2023-01-07T17:20:55.867Z,100025.94
2023-01-07T17:23:26.369Z,100015.47
2023-01-07T17:26:10.941Z,100022.72
2023-01-07T17:28:55.612Z,100017.38
2023-01-07T17:31:24.584Z,100010.44
2023-01-07T17:33:55.565Z,100018.75
2023-01-07T17:36:26.578Z,100023.28
2023-01-07T17:38:54.426Z,100014.03
2023-01-07T17:41:42.511Z,100004.63
2023-01-07T17:44:12.909Z,100012.75
2023-01-07T17:46:41.643Z,100017.22
2023-01-07T17:49:11.498Z,100014.34
2023-01-07T17:51:43.473Z,100011.75
2023-01-07T17:54:24.586Z,100008.34
2023-01-07T17:56:52.816Z,100008.50
2023-01-07T17:59:23.379Z,100013.69
2023-01-07T18:01:54.936Z,100009.34
2023-01-07T18:04:23.089Z,100003.16
2023-01-07T18:06:50.955Z,100005.75
2023-01-07T18:09:19.186Z,100000.69
2023-01-07T18:12:05.897Z,99998.19
2023-01-07T18:14:33.668Z,100006.41
2023-01-07T18:17:01.533Z,100005.59
2023-01-07T18:19:29.512Z,100005.53
2023-01-07T18:21:57.505Z,99999.63
2023-01-07T18:24:25.326Z,100005.09
2023-01-07T18:26:55.126Z,100013.81
2023-01-07T18:29:24.367Z,100018.16
2023-01-07T18:31:52.115Z,100019.00
2023-01-07T18:34:20.366Z,100012.00
2023-01-07T18:36:48.045Z,100020.22
2023-01-07T18:39:19.564Z,100014.75
2023-01-07T18:41:50.609Z,100007.88
2023-01-07T18:44:19.675Z,100024.00
2023-01-07T18:46:48.328Z,100012.63
2023-01-07T18:49:16.064Z,100006.66
2023-01-07T18:51:47.180Z,100000.69
2023-01-07T18:54:15.787Z,99993.00
2023-01-07T18:56:45.770Z,99998.13
2023-01-07T18:59:13.960Z,99999.84
2023-01-07T19:01:41.757Z,99998.97
2023-01-07T19:04:09.942Z,99978.72
2023-01-07T19:06:37.929Z,99991.00
2023-01-07T19:09:05.604Z,99972.56
2023-01-07T19:11:33.432Z,99988.88
2023-01-07T19:14:01.588Z,99980.94
2023-01-07T19:16:29.588Z,99971.16
2023-01-07T19:18:57.491Z,99988.72
2023-01-07T19:21:26.612Z,99985.19
2023-01-07T19:23:55.065Z,99989.38
2023-01-07T19:26:22.925Z,99981.47
2023-01-07T19:28:50.594Z,99985.13
2023-01-07T19:31:18.425Z,99988.91
2023-01-07T19:33:46.157Z,99983.94
2023-01-07T19:36:16.430Z,99966.44
2023-01-07T19:38:47.487Z,99971.69
2023-01-07T19:41:21.132Z,99964.44
2023-01-07T19:43:53.412Z,99969.63
2023-01-07T19:46:21.127Z,99960.19
2023-01-07T19:48:49.250Z,99957.59
2023-01-07T19:51:16.946Z,99970.13
2023-01-07T19:53:44.858Z,99971.31
2023-01-07T19:56:12.895Z,99964.44
2023-01-07T19:58:42.063Z,99954.81
2023-01-07T20:01:17.705Z,99957.41
2023-01-07T20:03:45.778Z,99949.34
2023-01-07T20:06:17.599Z,99946.66
2023-01-07T20:08:47.003Z,99943.97
2023-01-07T20:11:15.481Z,99940.50
2023-01-07T20:13:46.710Z,99928.03
2023-01-07T20:16:18.145Z,99940.59
2023-01-07T20:18:49.502Z,99936.13
2023-01-07T20:21:20.533Z,99942.38
2023-01-07T20:23:48.372Z,99941.50
2023-01-07T20:26:26.326Z,99943.31
2023-01-07T20:28:55.167Z,99938.19
2023-01-07T20:31:25.082Z,99938.31
2023-01-07T20:33:55.644Z,99938.38
2023-01-07T20:36:30.294Z,99930.72
2023-01-07T20:39:03.269Z,99933.56
2023-01-07T20:41:31.803Z,99941.72
2023-01-07T20:44:02.959Z,99941.88
2023-01-07T20:46:34.674Z,99937.13
2023-01-07T20:49:02.787Z,99938.66
2023-01-07T20:51:31.612Z,99948.31
2023-01-07T20:54:00.011Z,99939.50
2023-01-07T20:56:31.817Z,99943.78
2023-01-07T20:59:01.079Z,99936.75
2023-01-07T21:01:29.486Z,99930.50
2023-01-07T21:03:57.732Z,99926.72
2023-01-07T21:06:25.887Z,99924.13
2023-01-07T21:08:53.947Z,99930.16
2023-01-07T21:11:25.563Z,99924.72
2023-01-07T21:13:55.953Z,99921.38
2023-01-07T21:16:25.897Z,99925.78
2023-01-07T21:18:53.952Z,99927.75
2023-01-07T21:21:24.976Z,99927.50
2023-01-07T21:23:54.491Z,99933.72
2023-01-07T21:26:23.149Z,99942.47
2023-01-07T21:28:55.751Z,99942.47
2023-01-07T21:31:23.941Z,99938.09
2023-01-07T21:33:55.537Z,99935.34
2023-01-07T21:36:25.350Z,99938.94
2023-01-07T21:38:59.231Z,99936.19
2023-01-07T21:41:28.566Z,99938.03
2023-01-07T21:43:56.624Z,99937.16
2023-01-07T21:46:24.417Z,99930.97
2023-01-07T21:48:52.401Z,99929.91
2023-01-07T21:51:26.292Z,99939.34
2023-01-07T21:53:56.294Z,99928.72
2023-01-07T21:56:26.864Z,99938.31
2023-01-07T21:58:54.644Z,99935.75
2023-01-07T22:01:28.001Z,99931.19
2023-01-07T22:03:57.375Z,99918.81
2023-01-07T22:06:31.241Z,99919.56
2023-01-07T22:09:03.364Z,99924.88
2023-01-07T22:11:32.348Z,99940.78
2023-01-07T22:14:01.023Z,99930.13
2023-01-07T22:16:30.943Z,99936.13
2023-01-07T22:19:01.628Z,99929.75
2023-01-07T22:21:30.909Z,99927.09
2023-01-07T22:23:59.229Z,99940.19
2023-01-07T22:26:26.972Z,99936.66
2023-01-07T22:28:59.458Z,99933.75
2023-01-07T22:31:32.270Z,99936.41
2023-01-07T22:34:00.308Z,99937.09
2023-01-07T22:37:05.314Z,99934.09
2023-01-07T22:39:41.574Z,99927.03
2023-01-07T22:42:20.876Z,99929.56
2023-01-07T22:44:59.265Z,99939.09
2023-01-07T22:47:33.773Z,99938.16
2023-01-07T22:50:05.652Z,99941.66
2023-01-07T22:52:33.952Z,99942.53
2023-01-07T22:55:02.210Z,99930.91
2023-01-07T22:57:31.432Z,99924.44
2023-01-07T23:00:00.465Z,99922.63
2023-01-07T23:02:28.620Z,99916.31
2023-01-07T23:04:56.299Z,99916.91
2023-01-07T23:07:23.958Z,99923.81
2023-01-07T23:09:51.747Z,99907.19
2023-01-07T23:12:19.548Z,99913.75
2023-01-07T23:14:47.439Z,99915.34
2023-01-07T23:17:15.151Z,99908.28
2023-01-07T23:19:43.194Z,99907.41
2023-01-07T23:22:11.399Z,99909.00
2023-01-07T23:24:39.143Z,99903.91
2023-01-07T23:27:06.875Z,99900.22
2023-01-07T23:29:35.770Z,99902.75
2023-01-07T23:32:12.279Z,99905.41
2023-01-07T23:34:40.485Z,99900.13
2023-01-07T23:37:26.165Z,99891.44
2023-01-07T23:40:05.659Z,99883.28
2023-01-07T23:42:34.003Z,99884.16
2023-01-07T23:45:04.070Z,99864.66
2023-01-07T23:47:31.856Z,99865.50
2023-01-07T23:49:59.566Z,99854.63
2023-01-07T23:52:27.804Z,99860.63
2023-01-07T23:54:55.498Z,99857.81
2023-01-07T23:57:23.583Z,99844.78
2023-01-07T23:59:51.333Z,99849.09
